createdAt,value
2022-07-26T00:00:16.857Z,19.96
2022-07-26T00:01:16.841Z,19.92
2022-07-26T00:02:18.561Z,19.94
2022-07-26T00:03:16.813Z,19.95
2022-07-26T00:04:16.817Z,19.95
2022-07-26T00:05:16.858Z,19.95
2022-07-26T00:06:18.955Z,19.91
2022-07-26T00:07:16.780Z,19.89
2022-07-26T00:08:16.771Z,19.89
2022-07-26T00:09:16.758Z,19.86
2022-07-26T00:10:16.738Z,19.86
2022-07-26T00:11:16.729Z,19.85
2022-07-26T00:12:16.758Z,19.84
2022-07-26T00:13:16.697Z,19.85
2022-07-26T00:14:16.721Z,19.85
2022-07-26T00:15:16.673Z,19.86
2022-07-26T00:16:16.734Z,19.89
2022-07-26T00:17:16.659Z,19.89
2022-07-26T00:18:16.652Z,19.88
2022-07-26T00:19:16.631Z,19.88
2022-07-26T00:20:16.641Z,19.86
2022-07-26T00:21:16.610Z,19.86
2022-07-26T00:22:17.003Z,19.85
2022-07-26T00:23:16.590Z,19.86
2022-07-26T00:24:16.603Z,19.86
2022-07-26T00:25:16.583Z,19.86
2022-07-26T00:26:16.562Z,19.85
2022-07-26T00:27:16.542Z,19.82
2022-07-26T00:28:16.561Z,19.82
2022-07-26T00:29:16.535Z,19.81
2022-07-26T00:30:16.525Z,19.82
2022-07-26T00:31:16.547Z,19.84
2022-07-26T00:32:16.514Z,19.84
2022-07-26T00:33:16.473Z,19.84
2022-07-26T00:34:16.475Z,19.81
2022-07-26T00:35:16.449Z,19.82
2022-07-26T00:36:16.466Z,19.82
2022-07-26T00:37:20.342Z,19.85
2022-07-26T00:38:16.427Z,19.84
2022-07-26T00:39:16.414Z,19.84
2022-07-26T00:40:16.414Z,19.84
2022-07-26T00:41:16.426Z,19.82
2022-07-26T00:42:16.706Z,19.81
2022-07-26T00:43:16.376Z,19.82
2022-07-26T00:44:16.386Z,19.81
2022-07-26T00:45:16.344Z,19.82
2022-07-26T00:46:16.405Z,19.82
2022-07-26T00:47:16.347Z,19.81
2022-07-26T00:48:16.326Z,19.79
2022-07-26T00:49:16.369Z,19.81
2022-07-26T00:50:16.301Z,19.81
2022-07-26T00:51:16.286Z,19.79
2022-07-26T00:52:16.285Z,19.76
2022-07-26T00:53:16.258Z,19.73
2022-07-26T00:54:16.266Z,19.73
2022-07-26T00:55:16.245Z,19.73
2022-07-26T00:56:16.225Z,19.71
2022-07-26T00:57:16.223Z,19.69
2022-07-26T00:58:16.208Z,19.69
2022-07-26T00:59:16.190Z,19.70
2022-07-26T01:00:16.194Z,19.70
2022-07-26T01:01:16.230Z,19.69
2022-07-26T01:02:16.483Z,19.70
2022-07-26T01:03:16.150Z,19.62
2022-07-26T01:04:16.138Z,19.58
2022-07-26T01:05:16.121Z,19.58
2022-07-26T01:06:16.131Z,19.56
2022-07-26T01:07:16.098Z,19.56
2022-07-26T01:08:16.110Z,19.54
2022-07-26T01:09:16.590Z,19.54
2022-07-26T01:10:16.070Z,19.51
2022-07-26T01:11:16.062Z,19.51
2022-07-26T01:12:16.310Z,19.48
2022-07-26T01:13:16.039Z,19.45
2022-07-26T01:14:16.030Z,19.44
2022-07-26T01:15:16.018Z,19.40
2022-07-26T01:16:16.070Z,19.39
2022-07-26T01:17:15.995Z,19.37
2022-07-26T01:18:16.033Z,19.34
2022-07-26T01:19:15.973Z,19.31
2022-07-26T01:20:15.979Z,19.30
2022-07-26T01:21:15.948Z,19.30
2022-07-26T01:22:15.963Z,19.29
2022-07-26T01:23:15.923Z,19.30
2022-07-26T01:24:15.943Z,19.30
2022-07-26T01:25:15.903Z,19.29
2022-07-26T01:26:15.903Z,19.29
2022-07-26T01:27:15.896Z,19.27
2022-07-26T01:28:20.237Z,19.24
2022-07-26T01:29:15.863Z,19.24
2022-07-26T01:30:15.895Z,19.24
2022-07-26T01:31:15.918Z,19.21
2022-07-26T01:32:15.831Z,19.18
2022-07-26T01:33:15.835Z,19.18
2022-07-26T01:34:15.809Z,19.16
2022-07-26T01:35:15.795Z,19.11
2022-07-26T01:36:15.808Z,19.09
2022-07-26T01:37:15.787Z,19.09
2022-07-26T01:38:15.775Z,19.08
2022-07-26T01:39:15.767Z,19.09
2022-07-26T01:40:15.736Z,19.08
2022-07-26T01:41:15.755Z,19.07
2022-07-26T01:42:16.086Z,19.04
2022-07-26T01:43:15.720Z,19.02
2022-07-26T01:44:15.710Z,19.04
2022-07-26T01:45:15.691Z,19.00
2022-07-26T01:46:15.724Z,18.98
2022-07-26T01:47:15.667Z,18.95
2022-07-26T01:48:15.649Z,18.95
2022-07-26T01:49:15.738Z,18.95
2022-07-26T01:50:15.648Z,18.95
2022-07-26T01:51:15.620Z,18.95
2022-07-26T01:52:15.601Z,18.93
2022-07-26T01:53:15.617Z,18.95
2022-07-26T01:54:15.664Z,18.95
2022-07-26T01:55:16.579Z,18.93
2022-07-26T01:56:15.588Z,18.89
2022-07-26T01:57:15.589Z,18.88
2022-07-26T01:58:15.547Z,18.86
2022-07-26T01:59:15.548Z,18.88
2022-07-26T02:00:15.514Z,18.86
2022-07-26T02:01:15.575Z,18.83
2022-07-26T02:02:15.584Z,18.81
2022-07-26T02:03:15.585Z,18.81
2022-07-26T02:04:15.492Z,18.78
2022-07-26T02:05:15.472Z,18.77
2022-07-26T02:06:15.459Z,18.74
2022-07-26T02:07:15.443Z,18.71
2022-07-26T02:08:15.432Z,18.73
2022-07-26T02:09:15.443Z,18.70
2022-07-26T02:10:15.411Z,18.70
2022-07-26T02:11:15.432Z,18.66
2022-07-26T02:12:15.400Z,18.68
2022-07-26T02:13:15.389Z,18.70
2022-07-26T02:14:26.048Z,18.71
2022-07-26T02:15:16.372Z,18.70
2022-07-26T02:16:15.454Z,18.66
2022-07-26T02:17:15.344Z,18.65
2022-07-26T02:18:15.317Z,18.63
2022-07-26T02:19:15.388Z,18.63
2022-07-26T02:20:15.328Z,18.65
2022-07-26T02:21:15.285Z,18.71
2022-07-26T02:22:15.284Z,18.70
2022-07-26T02:23:15.265Z,18.70
2022-07-26T02:24:15.269Z,18.71
2022-07-26T02:25:15.256Z,18.73
2022-07-26T02:26:15.236Z,18.70
2022-07-26T02:27:15.224Z,18.68
2022-07-26T02:28:15.194Z,18.71
2022-07-26T02:29:15.195Z,18.70
2022-07-26T02:30:15.194Z,18.71
2022-07-26T02:31:15.608Z,18.70
2022-07-26T02:32:15.158Z,18.71
2022-07-26T02:33:15.158Z,18.71
2022-07-26T02:34:15.135Z,18.73
2022-07-26T02:35:15.142Z,18.71
2022-07-26T02:36:15.120Z,18.73
2022-07-26T02:37:15.118Z,18.73
2022-07-26T02:38:15.085Z,18.73
2022-07-26T02:39:15.117Z,18.68
2022-07-26T02:40:19.050Z,18.62
2022-07-26T02:41:15.158Z,18.60
2022-07-26T02:42:15.048Z,18.62
2022-07-26T02:43:15.051Z,18.62
2022-07-26T02:44:15.030Z,18.62
2022-07-26T02:45:15.031Z,18.59
2022-07-26T02:46:15.063Z,18.59
2022-07-26T02:47:15.018Z,18.60
2022-07-26T02:48:14.987Z,18.60
2022-07-26T02:49:15.061Z,18.60
2022-07-26T02:50:14.967Z,18.60
2022-07-26T02:51:15.621Z,18.60
2022-07-26T02:52:14.942Z,18.63
2022-07-26T02:53:14.951Z,18.63
2022-07-26T02:54:14.940Z,18.62
2022-07-26T02:55:14.928Z,18.60
2022-07-26T02:56:14.898Z,18.60
2022-07-26T02:57:14.892Z,18.59
2022-07-26T02:58:14.881Z,18.55
2022-07-26T02:59:14.883Z,18.55
2022-07-26T03:00:15.072Z,18.55
2022-07-26T03:01:14.884Z,18.55
2022-07-26T03:02:14.884Z,18.55
2022-07-26T03:03:14.912Z,18.56
2022-07-26T03:04:14.810Z,18.58
2022-07-26T03:05:14.821Z,18.59
2022-07-26T03:06:14.794Z,18.59
2022-07-26T03:07:14.775Z,18.60
2022-07-26T03:08:14.773Z,18.63
2022-07-26T03:09:14.757Z,18.63
2022-07-26T03:10:14.748Z,18.66
2022-07-26T03:11:14.744Z,18.66
2022-07-26T03:12:14.724Z,18.66
2022-07-26T03:13:14.744Z,18.66
2022-07-26T03:14:14.691Z,18.65
2022-07-26T03:15:14.702Z,18.62
2022-07-26T03:16:17.846Z,18.59
2022-07-26T03:17:15.712Z,18.60
2022-07-26T03:18:14.655Z,18.59
2022-07-26T03:19:14.644Z,18.59
2022-07-26T03:20:14.635Z,18.59
2022-07-26T03:21:14.636Z,18.59
2022-07-26T03:22:14.612Z,18.58
2022-07-26T03:23:14.617Z,18.59
2022-07-26T03:24:14.595Z,18.59
2022-07-26T03:25:14.596Z,18.59
2022-07-26T03:26:14.567Z,18.59
2022-07-26T03:27:14.564Z,18.59
2022-07-26T03:28:19.138Z,18.59
2022-07-26T03:29:15.535Z,18.59
2022-07-26T03:30:14.515Z,18.56
2022-07-26T03:31:14.545Z,18.56
2022-07-26T03:32:14.499Z,18.55
2022-07-26T03:33:14.487Z,18.55
2022-07-26T03:34:14.676Z,18.55
2022-07-26T03:35:14.467Z,18.55
2022-07-26T03:36:15.450Z,18.53
2022-07-26T03:37:14.459Z,18.50
2022-07-26T03:38:14.427Z,18.52
2022-07-26T03:39:14.459Z,18.52
2022-07-26T03:40:14.401Z,18.55
2022-07-26T03:41:14.398Z,18.55
2022-07-26T03:42:14.377Z,18.56
2022-07-26T03:43:14.376Z,18.58
2022-07-26T03:44:14.368Z,18.58
2022-07-26T03:45:14.385Z,18.56
2022-07-26T03:46:14.413Z,18.58
2022-07-26T03:47:14.350Z,18.59
2022-07-26T03:48:14.309Z,18.60
2022-07-26T03:49:16.900Z,18.60
2022-07-26T03:50:14.309Z,18.62
2022-07-26T03:51:14.301Z,18.60
2022-07-26T03:52:14.282Z,18.59
2022-07-26T03:53:14.273Z,18.59
2022-07-26T03:54:14.301Z,18.60
2022-07-26T03:55:14.242Z,18.58
2022-07-26T03:56:14.243Z,18.60
2022-07-26T03:57:14.254Z,18.62
2022-07-26T03:58:14.211Z,18.62
2022-07-26T03:59:14.222Z,18.60
2022-07-26T04:00:14.175Z,18.59
2022-07-26T04:01:14.251Z,18.60
2022-07-26T04:02:14.224Z,18.62
2022-07-26T04:03:14.178Z,18.62
2022-07-26T04:04:14.133Z,18.62
2022-07-26T04:05:14.142Z,18.65
2022-07-26T04:06:14.145Z,18.65
2022-07-26T04:07:14.105Z,18.68
2022-07-26T04:08:14.094Z,18.70
2022-07-26T04:09:14.081Z,18.70
2022-07-26T04:10:14.066Z,18.70
2022-07-26T04:11:14.082Z,18.70
2022-07-26T04:12:14.055Z,18.65
2022-07-26T04:13:14.138Z,18.66
2022-07-26T04:14:14.166Z,18.66
2022-07-26T04:15:14.066Z,18.66
2022-07-26T04:16:14.034Z,18.66
2022-07-26T04:17:14.072Z,18.66
2022-07-26T04:18:13.980Z,18.68
2022-07-26T04:19:13.975Z,18.66
2022-07-26T04:20:14.001Z,18.65
2022-07-26T04:21:14.019Z,18.60
2022-07-26T04:22:13.969Z,18.62
2022-07-26T04:23:13.974Z,18.62
2022-07-26T04:24:13.927Z,18.62
2022-07-26T04:25:13.925Z,18.62
2022-07-26T04:26:13.906Z,18.63
2022-07-26T04:27:13.999Z,18.63
2022-07-26T04:28:13.949Z,18.60
2022-07-26T04:29:13.906Z,18.65
2022-07-26T04:30:15.373Z,18.68
2022-07-26T04:31:13.933Z,18.66
2022-07-26T04:32:13.826Z,18.66
2022-07-26T04:33:13.826Z,18.66
2022-07-26T04:34:13.886Z,18.68
2022-07-26T04:35:13.916Z,18.70
2022-07-26T04:36:13.847Z,18.70
2022-07-26T04:37:13.800Z,18.71
2022-07-26T04:38:13.798Z,18.66
2022-07-26T04:39:13.761Z,18.71
2022-07-26T04:40:13.736Z,18.70
2022-07-26T04:41:13.740Z,18.73
2022-07-26T04:42:13.739Z,18.73
2022-07-26T04:43:15.721Z,18.73
2022-07-26T04:44:13.710Z,18.73
2022-07-26T04:45:13.693Z,18.73
2022-07-26T04:46:13.732Z,18.74
2022-07-26T04:47:13.678Z,18.74
2022-07-26T04:48:13.664Z,18.77
2022-07-26T04:49:13.695Z,18.75
2022-07-26T04:50:13.636Z,18.73
2022-07-26T04:51:13.613Z,18.71
2022-07-26T04:52:13.878Z,18.73
2022-07-26T04:53:13.590Z,18.71
2022-07-26T04:54:13.782Z,18.70
2022-07-26T04:55:13.576Z,18.71
2022-07-26T04:56:13.583Z,18.73
2022-07-26T04:57:13.552Z,18.74
2022-07-26T04:58:13.703Z,18.73
2022-07-26T04:59:15.347Z,18.75
2022-07-26T05:00:22.256Z,18.80
2022-07-26T05:01:14.589Z,18.80
2022-07-26T05:02:13.736Z,18.80
2022-07-26T05:03:14.049Z,18.77
2022-07-26T05:04:13.555Z,18.78
2022-07-26T05:05:13.475Z,18.75
2022-07-26T05:06:13.463Z,18.74
2022-07-26T05:07:13.444Z,18.74
2022-07-26T05:08:13.427Z,18.74
2022-07-26T05:09:13.423Z,18.74
2022-07-26T05:10:13.408Z,18.74
2022-07-26T05:11:13.400Z,18.74
2022-07-26T05:12:13.383Z,18.71
2022-07-26T05:13:13.377Z,18.70
2022-07-26T05:14:13.375Z,18.65
2022-07-26T05:15:14.159Z,18.63
2022-07-26T05:16:13.342Z,18.63
2022-07-26T05:17:13.361Z,18.65
2022-07-26T05:18:13.646Z,18.65
2022-07-26T05:19:13.315Z,18.70
2022-07-26T05:20:13.295Z,18.70
2022-07-26T05:21:13.275Z,18.73
2022-07-26T05:22:13.282Z,18.70
2022-07-26T05:23:13.376Z,18.71
2022-07-26T05:24:13.267Z,18.73
2022-07-26T05:25:13.247Z,18.78
2022-07-26T05:26:13.247Z,18.75
2022-07-26T05:27:13.207Z,18.78
2022-07-26T05:28:13.227Z,18.81
2022-07-26T05:29:13.219Z,18.86
2022-07-26T05:30:13.189Z,18.84
2022-07-26T05:31:13.241Z,18.84
2022-07-26T05:32:13.167Z,18.81
2022-07-26T05:33:16.637Z,18.81
2022-07-26T05:34:13.139Z,18.86
2022-07-26T05:35:13.380Z,18.84
2022-07-26T05:36:13.128Z,18.83
2022-07-26T05:37:13.108Z,18.80
2022-07-26T05:38:13.109Z,18.80
2022-07-26T05:39:16.056Z,18.81
2022-07-26T05:40:13.099Z,18.83
2022-07-26T05:41:13.061Z,18.80
2022-07-26T05:42:13.060Z,18.78
2022-07-26T05:43:13.087Z,18.73
2022-07-26T05:44:13.040Z,18.71
2022-07-26T05:45:13.279Z,18.71
2022-07-26T05:46:13.096Z,18.68
2022-07-26T05:47:13.004Z,18.70
2022-07-26T05:48:12.983Z,18.70
2022-07-26T05:49:13.051Z,18.75
2022-07-26T05:50:12.964Z,18.84
2022-07-26T05:51:12.967Z,18.88
2022-07-26T05:52:12.953Z,18.92
2022-07-26T05:53:12.937Z,18.99
2022-07-26T05:54:12.927Z,19.04
2022-07-26T05:55:12.913Z,19.11
2022-07-26T05:56:12.904Z,19.16
2022-07-26T05:57:13.523Z,19.14
2022-07-26T05:58:12.872Z,19.04
2022-07-26T05:59:13.044Z,19.02
2022-07-26T06:00:12.852Z,19.02
2022-07-26T06:01:12.867Z,19.02
2022-07-26T06:02:12.855Z,19.02
2022-07-26T06:03:12.829Z,19.04
2022-07-26T06:04:13.810Z,19.08
2022-07-26T06:05:12.805Z,18.98
2022-07-26T06:06:12.805Z,18.90
2022-07-26T06:07:12.803Z,18.86
2022-07-26T06:08:12.764Z,18.88
2022-07-26T06:09:12.776Z,18.88
2022-07-26T06:10:12.736Z,18.88
2022-07-26T06:11:12.748Z,18.90
2022-07-26T06:12:12.717Z,18.90
2022-07-26T06:13:12.735Z,18.84
2022-07-26T06:14:13.070Z,18.84
2022-07-26T06:15:15.444Z,18.77
2022-07-26T06:16:12.676Z,18.81
2022-07-26T06:17:12.696Z,18.80
2022-07-26T06:18:12.676Z,18.71
2022-07-26T06:19:12.649Z,18.66
2022-07-26T06:20:12.639Z,18.62
2022-07-26T06:21:12.628Z,18.62
2022-07-26T06:22:12.597Z,18.65
2022-07-26T06:23:12.847Z,18.71
2022-07-26T06:24:12.790Z,18.77
2022-07-26T06:25:12.611Z,18.74
2022-07-26T06:26:12.560Z,18.74
2022-07-26T06:27:12.550Z,18.75
2022-07-26T06:28:12.547Z,18.75
2022-07-26T06:29:12.551Z,18.75
2022-07-26T06:30:12.519Z,18.78
2022-07-26T06:31:12.541Z,18.75
2022-07-26T06:32:12.547Z,18.71
2022-07-26T06:33:12.500Z,18.75
2022-07-26T06:34:12.592Z,18.71
2022-07-26T06:35:12.469Z,18.75
2022-07-26T06:36:12.448Z,18.70
2022-07-26T06:37:12.449Z,18.66
2022-07-26T06:38:12.609Z,18.63
2022-07-26T06:39:12.422Z,18.63
2022-07-26T06:40:12.420Z,18.71
2022-07-26T06:41:12.412Z,18.80
2022-07-26T06:42:12.388Z,18.92
2022-07-26T06:43:12.379Z,18.98
2022-07-26T06:44:12.484Z,19.04
2022-07-26T06:45:12.372Z,19.09
2022-07-26T06:46:12.394Z,19.16
2022-07-26T06:47:12.342Z,19.21
2022-07-26T06:48:12.321Z,19.21
2022-07-26T06:49:12.375Z,19.15
2022-07-26T06:50:12.309Z,19.22
2022-07-26T06:51:12.293Z,19.29
2022-07-26T06:52:12.281Z,19.30
2022-07-26T06:53:12.272Z,19.26
2022-07-26T06:54:12.301Z,19.24
2022-07-26T06:55:12.622Z,19.29
2022-07-26T06:56:12.305Z,19.29
2022-07-26T06:57:12.225Z,19.29
2022-07-26T06:58:12.207Z,19.26
2022-07-26T06:59:12.225Z,19.16
2022-07-26T07:00:12.208Z,19.12
2022-07-26T07:01:12.212Z,19.09
2022-07-26T07:02:12.203Z,19.08
2022-07-26T07:03:12.156Z,19.07
2022-07-26T07:04:12.485Z,19.07
2022-07-26T07:05:12.244Z,18.99
2022-07-26T07:06:12.128Z,18.96
2022-07-26T07:07:12.117Z,18.93
2022-07-26T07:08:12.097Z,18.95
2022-07-26T07:09:12.098Z,18.98
2022-07-26T07:10:12.602Z,19.00
2022-07-26T07:11:12.178Z,18.96
2022-07-26T07:12:12.048Z,18.99
2022-07-26T07:13:12.057Z,19.07
2022-07-26T07:14:12.230Z,19.12
2022-07-26T07:15:12.028Z,19.18
2022-07-26T07:16:12.024Z,19.21
2022-07-26T07:17:15.952Z,19.18
2022-07-26T07:18:12.976Z,19.18
2022-07-26T07:19:11.977Z,19.11
2022-07-26T07:20:11.956Z,19.08
2022-07-26T07:21:12.197Z,19.08
2022-07-26T07:22:12.597Z,19.11
2022-07-26T07:23:11.957Z,19.12
2022-07-26T07:24:12.255Z,19.11
2022-07-26T07:25:14.825Z,19.12
2022-07-26T07:26:11.916Z,19.14
2022-07-26T07:27:11.889Z,19.12
2022-07-26T07:28:11.892Z,19.12
2022-07-26T07:29:11.883Z,19.15
2022-07-26T07:30:11.863Z,19.18
2022-07-26T07:31:11.888Z,19.18
2022-07-26T07:32:18.553Z,19.22
2022-07-26T07:33:22.446Z,19.29
2022-07-26T07:34:12.962Z,19.24
2022-07-26T07:35:12.825Z,19.29
2022-07-26T07:36:11.789Z,19.29
2022-07-26T07:37:11.789Z,19.34
2022-07-26T07:38:11.771Z,19.41
2022-07-26T07:39:15.751Z,19.40
2022-07-26T07:40:12.741Z,19.47
2022-07-26T07:41:11.733Z,19.51
2022-07-26T07:42:11.722Z,19.55
2022-07-26T07:43:11.733Z,19.66
2022-07-26T07:44:11.995Z,19.70
2022-07-26T07:45:11.717Z,19.67
2022-07-26T07:46:11.682Z,19.59
2022-07-26T07:47:11.744Z,19.59
2022-07-26T07:48:11.654Z,19.58
2022-07-26T07:49:12.176Z,19.59
2022-07-26T07:50:11.656Z,19.63
2022-07-26T07:51:11.633Z,19.70
2022-07-26T07:52:11.862Z,19.69
2022-07-26T07:53:11.597Z,19.77
2022-07-26T07:54:11.585Z,19.86
2022-07-26T07:55:40.313Z,19.96
2022-07-26T07:56:12.562Z,20.00
2022-07-26T07:57:11.567Z,20.03
2022-07-26T07:58:11.541Z,20.03
2022-07-26T07:59:11.907Z,20.04
2022-07-26T08:00:11.536Z,20.11
2022-07-26T08:01:11.565Z,20.14
2022-07-26T08:02:11.498Z,20.06
2022-07-26T08:03:11.506Z,19.99
2022-07-26T08:04:11.503Z,19.92
2022-07-26T08:05:14.328Z,19.86
2022-07-26T08:06:11.458Z,19.82
2022-07-26T08:07:11.503Z,19.71
2022-07-26T08:08:11.432Z,19.63
2022-07-26T08:09:11.611Z,19.64
2022-07-26T08:10:11.407Z,19.66
2022-07-26T08:11:11.437Z,19.73
2022-07-26T08:12:11.509Z,19.81
2022-07-26T08:13:11.377Z,19.82
2022-07-26T08:14:11.369Z,19.92
2022-07-26T08:15:11.378Z,19.96
2022-07-26T08:16:11.411Z,19.95
2022-07-26T08:17:11.341Z,20.02
2022-07-26T08:18:11.317Z,20.03
2022-07-26T08:19:11.919Z,20.06
2022-07-26T08:20:11.291Z,20.14
2022-07-26T08:21:11.310Z,20.18
2022-07-26T08:22:11.288Z,20.22
2022-07-26T08:23:11.270Z,20.28
2022-07-26T08:24:11.269Z,20.31
2022-07-26T08:25:11.250Z,20.36
2022-07-26T08:26:11.243Z,20.44
2022-07-26T08:27:11.531Z,20.58
2022-07-26T08:28:30.595Z,20.63
2022-07-26T08:29:12.528Z,20.58
2022-07-26T08:30:11.190Z,20.55
2022-07-26T08:31:11.236Z,20.62
2022-07-26T08:32:11.163Z,20.69
2022-07-26T08:33:11.163Z,20.67
2022-07-26T08:34:11.150Z,20.72
2022-07-26T08:35:17.986Z,20.80
2022-07-26T08:36:12.113Z,20.87
2022-07-26T08:37:18.530Z,20.92
2022-07-26T08:38:12.094Z,20.92
2022-07-26T08:39:11.246Z,20.96
2022-07-26T08:40:11.074Z,20.92
2022-07-26T08:41:11.083Z,20.84
2022-07-26T08:42:11.061Z,20.78
2022-07-26T08:43:11.073Z,20.75
2022-07-26T08:44:11.044Z,20.74
2022-07-26T08:45:11.034Z,20.84
2022-07-26T08:46:11.693Z,20.96
2022-07-26T08:47:11.075Z,21.14
2022-07-26T08:48:18.881Z,21.39
2022-07-26T08:49:12.768Z,21.67
2022-07-26T08:50:10.978Z,21.70
2022-07-26T08:51:11.238Z,21.61
2022-07-26T08:52:10.954Z,21.55
2022-07-26T08:53:10.947Z,21.43
2022-07-26T08:54:10.946Z,21.52
2022-07-26T08:55:10.928Z,21.46
2022-07-26T08:56:10.894Z,21.29
2022-07-26T08:57:10.918Z,21.14
2022-07-26T08:58:10.879Z,21.12
2022-07-26T08:59:15.608Z,21.17
2022-07-26T09:00:11.848Z,21.25
2022-07-26T09:01:10.907Z,21.33
2022-07-26T09:02:10.859Z,21.30
2022-07-26T09:03:10.826Z,21.30
2022-07-26T09:04:13.668Z,21.37
2022-07-26T09:05:10.817Z,21.52
2022-07-26T09:06:10.790Z,21.62
2022-07-26T09:07:10.810Z,21.62
2022-07-26T09:08:10.778Z,21.61
2022-07-26T09:09:11.274Z,21.52
2022-07-26T09:10:10.740Z,21.55
2022-07-26T09:11:10.755Z,21.62
2022-07-26T09:12:10.741Z,21.57
2022-07-26T09:13:10.733Z,21.46
2022-07-26T09:14:10.712Z,21.48
2022-07-26T09:15:10.691Z,21.50
2022-07-26T09:16:10.774Z,21.60
2022-07-26T09:17:10.702Z,21.69
2022-07-26T09:18:10.659Z,21.66
2022-07-26T09:19:11.059Z,21.54
2022-07-26T09:20:10.730Z,21.55
2022-07-26T09:21:10.643Z,21.57
2022-07-26T09:22:10.861Z,21.51
2022-07-26T09:23:10.622Z,21.51
2022-07-26T09:24:10.603Z,21.51
2022-07-26T09:25:10.594Z,21.48
2022-07-26T09:26:10.570Z,21.42
2022-07-26T09:27:10.581Z,21.37
2022-07-26T09:28:10.541Z,21.29
2022-07-26T09:29:10.975Z,21.22
2022-07-26T09:30:10.514Z,21.12
2022-07-26T09:31:10.542Z,20.80
2022-07-26T09:32:10.502Z,20.63
2022-07-26T09:33:10.515Z,20.48
2022-07-26T09:34:10.857Z,20.25
2022-07-26T09:35:44.213Z,20.07
2022-07-26T09:36:11.463Z,19.74
2022-07-26T09:37:12.483Z,19.40
2022-07-26T09:38:10.496Z,19.11
2022-07-26T09:39:10.942Z,18.73
2022-07-26T09:40:10.417Z,18.52
2022-07-26T09:41:10.574Z,18.25
2022-07-26T09:42:27.407Z,18.03
2022-07-26T09:43:11.506Z,17.82
2022-07-26T09:44:10.844Z,17.68
2022-07-26T09:45:10.376Z,17.51
2022-07-26T09:46:10.439Z,17.42
2022-07-26T09:47:10.346Z,17.34
2022-07-26T09:48:10.608Z,17.30
2022-07-26T09:49:11.479Z,17.22
2022-07-26T09:50:11.682Z,17.19
2022-07-26T09:51:10.308Z,17.15
2022-07-26T09:52:10.276Z,17.16
2022-07-26T09:53:10.287Z,17.15
2022-07-26T09:54:10.656Z,17.14
2022-07-26T09:55:10.267Z,17.04
2022-07-26T09:56:10.236Z,17.02
2022-07-26T09:57:10.227Z,17.02
2022-07-26T09:58:10.211Z,17.05
2022-07-26T09:59:10.219Z,17.06
2022-07-26T10:00:10.203Z,17.06
2022-07-26T10:01:10.399Z,17.02
2022-07-26T10:02:10.264Z,16.97
2022-07-26T10:03:10.229Z,16.93
2022-07-26T10:04:10.634Z,16.89
2022-07-26T10:05:10.208Z,16.96
2022-07-26T10:06:10.142Z,16.94
2022-07-26T10:07:10.114Z,16.96
2022-07-26T10:08:10.098Z,17.02
2022-07-26T10:09:10.126Z,17.04
2022-07-26T10:10:10.093Z,17.06
2022-07-26T10:11:10.087Z,17.08
2022-07-26T10:12:10.071Z,17.09
2022-07-26T10:13:10.039Z,17.12
2022-07-26T10:14:10.528Z,17.16
2022-07-26T10:15:10.019Z,17.22
2022-07-26T10:16:10.071Z,17.24
2022-07-26T10:17:10.993Z,17.31
2022-07-26T10:18:09.992Z,17.31
2022-07-26T10:19:11.003Z,17.31
2022-07-26T10:20:19.280Z,17.41
2022-07-26T10:21:11.352Z,17.36
2022-07-26T10:22:09.963Z,17.38
2022-07-26T10:23:09.932Z,17.36
2022-07-26T10:24:10.257Z,17.42
2022-07-26T10:25:09.931Z,17.46
2022-07-26T10:26:09.973Z,17.52
2022-07-26T10:27:09.892Z,17.51
2022-07-26T10:28:11.732Z,17.44
2022-07-26T10:29:09.852Z,17.44
2022-07-26T10:30:09.925Z,17.44
2022-07-26T10:31:09.904Z,17.49
2022-07-26T10:32:09.843Z,17.52
2022-07-26T10:33:09.833Z,17.57
2022-07-26T10:34:10.095Z,17.63
2022-07-26T10:35:09.791Z,17.72
2022-07-26T10:36:09.803Z,17.83
2022-07-26T10:37:10.400Z,17.90
2022-07-26T10:38:09.775Z,17.86
2022-07-26T10:39:09.748Z,17.89
2022-07-26T10:40:09.751Z,17.92
2022-07-26T10:41:09.755Z,17.86
2022-07-26T10:42:09.734Z,17.85
2022-07-26T10:43:37.796Z,17.85
2022-07-26T10:44:11.199Z,17.80
2022-07-26T10:45:09.717Z,17.80
2022-07-26T10:46:09.702Z,17.79
2022-07-26T10:47:09.674Z,17.83
2022-07-26T10:48:09.673Z,17.86
2022-07-26T10:49:09.694Z,17.94
2022-07-26T10:50:09.635Z,18.04
2022-07-26T10:51:09.617Z,18.13
2022-07-26T10:52:09.615Z,18.22
2022-07-26T10:53:09.615Z,18.29
2022-07-26T10:54:10.014Z,18.31
2022-07-26T10:55:09.576Z,18.38
2022-07-26T10:56:09.579Z,18.47
2022-07-26T10:57:09.560Z,18.73
2022-07-26T10:58:09.559Z,18.93
2022-07-26T10:59:09.533Z,19.11
2022-07-26T11:00:09.573Z,19.22
2022-07-26T11:01:09.674Z,19.19
2022-07-26T11:02:09.577Z,19.19
2022-07-26T11:03:09.543Z,19.19
2022-07-26T11:04:10.750Z,19.30
2022-07-26T11:05:09.468Z,19.40
2022-07-26T11:06:09.463Z,19.41
2022-07-26T11:07:09.448Z,19.47
2022-07-26T11:08:09.439Z,19.45
2022-07-26T11:09:09.429Z,19.52
2022-07-26T11:10:09.487Z,19.58
2022-07-26T11:11:09.400Z,19.62
2022-07-26T11:12:09.412Z,19.56
2022-07-26T11:13:09.388Z,19.41
2022-07-26T11:14:09.918Z,19.29
2022-07-26T11:15:09.351Z,18.99
2022-07-26T11:16:09.512Z,18.74
2022-07-26T11:17:09.332Z,18.56
2022-07-26T11:18:09.360Z,18.38
2022-07-26T11:19:09.391Z,18.28
2022-07-26T11:20:09.305Z,18.15
2022-07-26T11:21:09.339Z,18.03
2022-07-26T11:22:09.312Z,18.01
2022-07-26T11:23:09.264Z,17.97
2022-07-26T11:24:09.638Z,17.90
2022-07-26T11:25:09.246Z,18.00
2022-07-26T11:26:09.248Z,18.04
2022-07-26T11:27:09.234Z,18.04
2022-07-26T11:28:09.237Z,18.07
2022-07-26T11:29:09.193Z,18.11
2022-07-26T11:30:09.295Z,18.13
2022-07-26T11:31:09.218Z,18.20
2022-07-26T11:32:14.619Z,18.22
2022-07-26T11:33:10.177Z,18.25
2022-07-26T11:34:11.414Z,18.33
2022-07-26T11:35:09.132Z,18.41
2022-07-26T11:36:09.148Z,18.43
2022-07-26T11:37:09.104Z,18.41
2022-07-26T11:38:12.146Z,18.31
2022-07-26T11:39:09.089Z,18.31
2022-07-26T11:40:09.084Z,18.37
2022-07-26T11:41:09.067Z,18.45
2022-07-26T11:42:09.071Z,18.40
2022-07-26T11:43:09.057Z,18.47
2022-07-26T11:44:09.048Z,18.56
2022-07-26T11:45:09.049Z,18.55
2022-07-26T11:46:09.098Z,18.62
2022-07-26T11:47:08.997Z,18.68
2022-07-26T11:48:09.018Z,18.77
2022-07-26T11:49:09.025Z,18.78
2022-07-26T11:50:16.428Z,18.83
2022-07-26T11:51:09.960Z,18.92
2022-07-26T11:52:08.958Z,18.93
2022-07-26T11:53:09.010Z,18.93
2022-07-26T11:54:09.182Z,18.89
2022-07-26T11:55:08.922Z,18.81
2022-07-26T11:56:08.900Z,18.86
2022-07-26T11:57:08.896Z,18.90
2022-07-26T11:58:08.905Z,18.84
2022-07-26T11:59:08.882Z,18.81
2022-07-26T12:00:08.896Z,18.80
2022-07-26T12:01:08.853Z,18.83
2022-07-26T12:02:08.870Z,18.80
2022-07-26T12:03:08.812Z,18.77
2022-07-26T12:04:09.388Z,18.77
2022-07-26T12:05:08.950Z,18.74
2022-07-26T12:06:08.805Z,18.77
2022-07-26T12:07:08.780Z,18.77
2022-07-26T12:08:08.783Z,18.77
2022-07-26T12:09:08.761Z,18.81
2022-07-26T12:10:08.993Z,18.88
2022-07-26T12:11:08.753Z,18.90
2022-07-26T12:12:08.752Z,18.95
2022-07-26T12:13:08.712Z,18.93
2022-07-26T12:14:09.985Z,18.96
2022-07-26T12:15:08.693Z,18.96
2022-07-26T12:16:09.008Z,19.00
2022-07-26T12:17:08.693Z,19.08
2022-07-26T12:18:08.666Z,19.11
2022-07-26T12:19:09.475Z,19.16
2022-07-26T12:20:09.273Z,19.12
2022-07-26T12:21:09.366Z,19.15
2022-07-26T12:22:08.641Z,19.16
2022-07-26T12:23:08.599Z,19.11
2022-07-26T12:24:09.350Z,19.07
2022-07-26T12:25:08.578Z,19.00
2022-07-26T12:26:10.096Z,18.92
2022-07-26T12:27:08.555Z,18.83
2022-07-26T12:28:08.565Z,18.77
2022-07-26T12:29:08.524Z,18.75
2022-07-26T12:30:08.548Z,18.70
2022-07-26T12:31:08.617Z,18.65
2022-07-26T12:32:12.240Z,18.66
2022-07-26T12:33:08.498Z,18.68
2022-07-26T12:34:08.825Z,18.74
2022-07-26T12:35:08.466Z,18.77
2022-07-26T12:36:08.465Z,18.77
2022-07-26T12:37:08.444Z,18.75
2022-07-26T12:38:08.457Z,18.74
2022-07-26T12:39:08.425Z,18.66
2022-07-26T12:40:08.419Z,18.65
2022-07-26T12:41:08.397Z,18.53
2022-07-26T12:42:09.397Z,18.44
2022-07-26T12:43:08.391Z,18.37
2022-07-26T12:44:09.069Z,18.28
2022-07-26T12:45:08.350Z,18.22
2022-07-26T12:46:08.407Z,18.20
2022-07-26T12:47:08.350Z,18.22
2022-07-26T12:48:08.349Z,18.15
2022-07-26T12:49:08.390Z,18.07
2022-07-26T12:50:08.323Z,17.98
2022-07-26T12:51:08.288Z,17.95
2022-07-26T12:52:08.290Z,18.00